createdAt,value
2019-06-10T00:01:27.226Z,17.88
2019-06-10T00:04:00.503Z,17.87
2019-06-10T00:06:32.799Z,17.85
2019-06-10T00:09:07.985Z,18.05
2019-06-10T00:11:41.111Z,17.70
2019-06-10T00:14:12.743Z,17.64
2019-06-10T00:16:44.639Z,17.53
2019-06-10T00:19:16.261Z,17.71
2019-06-10T00:21:47.920Z,17.84
2019-06-10T00:24:21.083Z,17.74
2019-06-10T00:26:53.082Z,17.61
2019-06-10T00:29:24.783Z,17.59
2019-06-10T00:31:56.192Z,17.68
2019-06-10T00:34:27.725Z,17.90
2019-06-10T00:37:02.064Z,17.75
2019-06-10T00:39:32.787Z,17.75
2019-06-10T00:42:07.593Z,17.77
2019-06-10T00:44:37.921Z,17.61
2019-06-10T00:47:14.768Z,17.57
2019-06-10T00:49:42.865Z,17.52
2019-06-10T00:52:14.594Z,17.50
2019-06-10T00:54:46.332Z,17.47
2019-06-10T00:57:17.768Z,17.52
2019-06-10T00:59:50.810Z,17.48
2019-06-10T01:02:23.523Z,17.55
2019-06-10T01:04:55.299Z,17.48
2019-06-10T01:07:26.809Z,17.59
2019-06-10T01:09:58.464Z,17.56
2019-06-10T01:12:31.645Z,17.70
2019-06-10T01:15:03.547Z,17.62
2019-06-10T01:17:35.397Z,17.55
2019-06-10T01:20:07.872Z,17.57
2019-06-10T01:22:41.122Z,17.45
2019-06-10T01:25:14.967Z,17.35
2019-06-10T01:27:46.610Z,17.12
2019-06-10T01:30:24.590Z,17.02
2019-06-10T01:32:52.318Z,16.85
2019-06-10T01:35:23.981Z,16.89
2019-06-10T01:37:55.687Z,16.89
2019-06-10T01:40:27.342Z,16.84
2019-06-10T01:43:00.954Z,16.83
2019-06-10T01:45:32.454Z,16.79
2019-06-10T01:48:04.514Z,16.59
2019-06-10T01:50:36.191Z,16.52
2019-06-10T01:53:07.688Z,16.45
2019-06-10T01:55:41.734Z,16.46
2019-06-10T01:58:16.255Z,16.39
2019-06-10T02:00:56.306Z,16.39
2019-06-10T02:03:27.983Z,16.34
2019-06-10T02:06:01.367Z,16.36
2019-06-10T02:08:33.895Z,16.38
2019-06-10T02:11:05.613Z,16.37
2019-06-10T02:13:37.307Z,16.38
2019-06-10T02:16:10.364Z,16.32
2019-06-10T02:18:44.946Z,16.25
2019-06-10T02:21:16.415Z,16.21
2019-06-10T02:23:47.521Z,16.06
2019-06-10T02:26:21.999Z,16.09
2019-06-10T02:28:52.903Z,16.09
2019-06-10T02:31:30.553Z,16.14
2019-06-10T02:33:58.161Z,16.11
2019-06-10T02:36:35.371Z,16.13
2019-06-10T02:39:04.525Z,16.10
2019-06-10T02:41:36.740Z,16.02
2019-06-10T02:44:08.800Z,16.01
2019-06-10T02:46:43.966Z,16.00
2019-06-10T02:49:31.357Z,16.05
2019-06-10T02:51:47.497Z,16.04
2019-06-10T02:54:20.870Z,16.08
2019-06-10T02:56:53.982Z,16.13
2019-06-10T02:59:29.980Z,16.02
2019-06-10T03:02:02.892Z,16.02
2019-06-10T03:04:37.713Z,16.02
2019-06-10T03:07:07.101Z,16.01
2019-06-10T03:09:38.654Z,16.09
2019-06-10T03:12:12.208Z,16.14
2019-06-10T03:14:44.125Z,16.20
2019-06-10T03:17:18.374Z,16.18
2019-06-10T03:19:53.013Z,16.14
2019-06-10T03:22:23.008Z,16.12
2019-06-10T03:24:55.559Z,16.15
2019-06-10T03:27:27.948Z,16.06
2019-06-10T03:30:02.795Z,16.08
2019-06-10T03:32:40.540Z,16.19
2019-06-10T03:35:06.884Z,16.33
2019-06-10T03:37:38.431Z,16.28
2019-06-10T03:40:12.871Z,16.56
2019-06-10T03:42:43.839Z,16.62
2019-06-10T03:45:17.267Z,16.70
2019-06-10T03:47:49.189Z,16.76
2019-06-10T03:50:23.953Z,16.74
2019-06-10T03:52:52.990Z,16.79
2019-06-10T03:55:27.541Z,16.84
2019-06-10T03:57:58.434Z,16.79
2019-06-10T04:00:32.559Z,16.84
2019-06-10T04:03:03.792Z,16.97
2019-06-10T04:05:35.750Z,17.01
2019-06-10T04:08:07.434Z,17.13
2019-06-10T04:10:39.505Z,17.30
2019-06-10T04:13:13.306Z,17.43
2019-06-10T04:15:45.401Z,17.55
2019-06-10T04:18:17.848Z,17.59
2019-06-10T04:20:49.891Z,17.61
2019-06-10T04:23:23.805Z,17.70
2019-06-10T04:25:55.360Z,17.83
2019-06-10T04:28:28.685Z,17.84
2019-06-10T04:31:02.532Z,17.93
2019-06-10T04:33:34.122Z,17.98
2019-06-10T04:36:05.599Z,18.03
2019-06-10T04:38:37.282Z,18.15
2019-06-10T04:41:08.855Z,18.33
2019-06-10T04:43:42.990Z,18.51
2019-06-10T04:46:13.891Z,18.64
2019-06-10T04:48:45.608Z,18.82
2019-06-10T04:51:17.166Z,18.86
2019-06-10T04:53:48.857Z,18.96
2019-06-10T04:56:22.897Z,19.01
2019-06-10T04:58:52.722Z,19.15
2019-06-10T05:01:27.011Z,19.33
2019-06-10T05:03:56.563Z,19.45
2019-06-10T05:06:28.675Z,19.64
2019-06-10T05:09:04.052Z,19.81
2019-06-10T05:11:34.883Z,20.06
2019-06-10T05:14:06.679Z,20.34
2019-06-10T05:16:38.434Z,20.58
2019-06-10T05:19:09.777Z,20.85
2019-06-10T05:21:42.374Z,21.09
2019-06-10T05:24:14.133Z,21.26
2019-06-10T05:26:45.855Z,21.48
2019-06-10T05:29:17.819Z,21.53
2019-06-10T05:31:52.157Z,21.64
2019-06-10T05:34:25.579Z,21.83
2019-06-10T05:36:56.403Z,21.89
2019-06-10T05:39:29.170Z,22.12
2019-06-10T05:42:03.302Z,22.28
2019-06-10T05:44:35.383Z,22.40
2019-06-10T05:47:12.521Z,22.66
2019-06-10T05:49:46.734Z,22.71
2019-06-10T05:52:18.272Z,22.67
2019-06-10T05:54:52.153Z,22.78
2019-06-10T05:57:24.587Z,22.98
2019-06-10T05:59:57.053Z,23.04
2019-06-10T06:02:29.842Z,23.01
2019-06-10T06:05:02.520Z,23.06
2019-06-10T06:07:35.587Z,23.08
2019-06-10T06:10:09.057Z,23.24
2019-06-10T06:12:42.484Z,23.43
2019-06-10T06:15:14.724Z,23.52
2019-06-10T06:17:46.499Z,23.70
2019-06-10T06:20:19.371Z,23.70
2019-06-10T06:22:52.262Z,24.09
2019-06-10T06:25:24.554Z,24.21
2019-06-10T06:27:56.538Z,24.12
2019-06-10T06:30:28.426Z,24.49
2019-06-10T06:33:02.918Z,24.69
2019-06-10T06:35:40.883Z,25.02
2019-06-10T06:38:07.402Z,25.15
2019-06-10T06:40:39.081Z,25.22
2019-06-10T06:43:12.088Z,25.39
2019-06-10T06:45:43.830Z,25.57
2019-06-10T06:48:15.793Z,25.51
2019-06-10T06:51:01.829Z,25.18
2019-06-10T06:53:32.365Z,25.08
2019-06-10T06:55:55.992Z,25.01
2019-06-10T06:58:29.095Z,24.88
2019-06-10T07:01:09.899Z,24.90
2019-06-10T07:03:38.134Z,25.03
2019-06-10T07:06:09.299Z,25.23
2019-06-10T07:08:51.802Z,25.58
2019-06-10T07:11:48.170Z,25.68
2019-06-10T07:14:23.956Z,25.93
2019-06-10T07:16:58.539Z,26.15
2019-06-10T07:19:35.106Z,26.22
2019-06-10T07:22:13.613Z,26.11
2019-06-10T07:24:47.564Z,25.84
2019-06-10T07:27:22.596Z,26.12
2019-06-10T07:29:57.391Z,26.00
2019-06-10T07:32:34.182Z,26.20
2019-06-10T07:35:07.969Z,26.31
2019-06-10T07:37:52.340Z,26.57
2019-06-10T07:40:39.216Z,26.58
2019-06-10T07:43:25.607Z,26.44
2019-06-10T07:46:08.127Z,26.56
2019-06-10T07:48:46.238Z,26.48
2019-06-10T07:51:17.543Z,26.68
2019-06-10T07:53:52.537Z,26.57
2019-06-10T07:56:29.738Z,26.45
2019-06-10T07:59:03.919Z,26.67
2019-06-10T08:01:42.215Z,26.73
2019-06-10T08:04:13.631Z,26.75
2019-06-10T08:06:49.879Z,26.65
2019-06-10T08:09:23.281Z,26.58
2019-06-10T08:11:57.091Z,26.14
2019-06-10T08:14:32.944Z,26.17
2019-06-10T08:17:04.093Z,26.25
2019-06-10T08:19:41.272Z,26.57
2019-06-10T08:22:09.517Z,26.44
2019-06-10T08:24:43.593Z,26.44
2019-06-10T08:27:15.064Z,26.67
2019-06-10T08:29:49.557Z,26.69
2019-06-10T08:32:20.638Z,26.54
2019-06-10T08:34:54.162Z,26.49
2019-06-10T08:37:26.065Z,26.23
2019-06-10T08:39:57.800Z,26.09
2019-06-10T08:42:29.278Z,26.19
2019-06-10T08:45:03.469Z,26.19
2019-06-10T08:47:34.588Z,26.37
2019-06-10T08:50:06.495Z,27.06
2019-06-10T08:53:02.742Z,27.06
2019-06-10T08:55:12.691Z,27.13
2019-06-10T08:57:48.829Z,26.80
2019-06-10T09:00:18.747Z,26.89
2019-06-10T09:02:53.679Z,26.86
2019-06-10T09:05:24.170Z,26.54
2019-06-10T09:07:55.824Z,26.54
2019-06-10T09:10:27.500Z,26.39
2019-06-10T09:12:59.273Z,26.31
2019-06-10T09:15:32.473Z,26.34
2019-06-10T09:18:04.435Z,26.61
2019-06-10T09:20:36.278Z,26.99
2019-06-10T09:23:19.213Z,27.13
2019-06-10T09:25:49.455Z,26.96
2019-06-10T09:28:23.467Z,26.93
2019-06-10T09:30:59.378Z,26.94
2019-06-10T09:33:33.279Z,27.23
2019-06-10T09:36:08.003Z,27.11
2019-06-10T09:38:46.742Z,26.94
2019-06-10T09:41:17.661Z,26.93
2019-06-10T09:43:56.769Z,27.42
2019-06-10T09:46:29.805Z,27.51
2019-06-10T09:49:04.783Z,27.97
2019-06-10T09:51:38.559Z,28.14
2019-06-10T09:54:12.811Z,27.85
2019-06-10T09:56:48.471Z,27.74
2019-06-10T09:59:23.498Z,27.27
2019-06-10T10:02:01.848Z,27.61
2019-06-10T10:04:47.143Z,27.52
2019-06-10T10:07:17.689Z,27.58
2019-06-10T10:10:05.519Z,27.71
2019-06-10T10:12:49.478Z,27.83
2019-06-10T10:15:30.638Z,28.11
2019-06-10T10:18:13.182Z,28.18
2019-06-10T10:20:48.117Z,28.09
2019-06-10T10:23:50.097Z,27.93
2019-06-10T10:26:12.781Z,27.99
2019-06-10T10:28:46.867Z,28.21
2019-06-10T10:31:23.062Z,28.16
2019-06-10T10:33:56.153Z,27.97
2019-06-10T10:36:30.273Z,27.62
2019-06-10T10:39:08.565Z,27.33
2019-06-10T10:41:44.660Z,27.33
2019-06-10T10:44:18.727Z,27.64
2019-06-10T10:46:54.388Z,27.78
2019-06-10T10:49:27.901Z,28.19
2019-06-10T10:52:02.676Z,28.19
2019-06-10T10:54:36.888Z,28.63
2019-06-10T10:57:10.344Z,28.52
2019-06-10T10:59:45.106Z,28.47
2019-06-10T11:02:29.308Z,28.74
2019-06-10T11:05:16.922Z,29.15
2019-06-10T11:08:04.347Z,29.20
2019-06-10T11:10:57.129Z,29.30
2019-06-10T11:13:39.239Z,29.01
2019-06-10T11:16:25.195Z,28.84
2019-06-10T11:19:08.365Z,28.47
2019-06-10T11:21:43.252Z,28.02
2019-06-10T11:24:36.552Z,27.80
2019-06-10T11:27:08.999Z,27.55
2019-06-10T11:29:42.917Z,27.09
2019-06-10T11:32:16.603Z,27.09
2019-06-10T11:34:50.195Z,26.98
2019-06-10T11:37:23.523Z,26.60
2019-06-10T11:39:57.239Z,26.60
2019-06-10T11:42:33.473Z,26.70
2019-06-10T11:45:06.766Z,27.45
2019-06-10T11:47:42.500Z,28.20
2019-06-10T11:50:16.249Z,29.18
2019-06-10T11:52:53.583Z,29.30
2019-06-10T11:55:25.163Z,28.94
2019-06-10T11:57:59.367Z,28.84
2019-06-10T12:00:33.338Z,29.43
2019-06-10T12:03:07.523Z,30.16
2019-06-10T12:05:43.390Z,30.46
2019-06-10T12:08:17.172Z,30.92
2019-06-10T12:10:58.745Z,29.94
2019-06-10T12:13:33.872Z,29.34
2019-06-10T12:16:51.480Z,28.77
2019-06-10T12:18:44.237Z,28.41
2019-06-10T12:21:18.722Z,27.98
2019-06-10T12:23:55.968Z,27.17
2019-06-10T12:26:27.478Z,27.51
2019-06-10T12:29:05.270Z,28.54
2019-06-10T12:31:36.873Z,29.30
2019-06-10T12:34:08.972Z,30.05
2019-06-10T12:36:42.061Z,29.94
2019-06-10T12:39:17.423Z,29.42
2019-06-10T12:41:54.620Z,29.07
2019-06-10T12:44:26.865Z,28.50
2019-06-10T12:47:02.072Z,27.98
2019-06-10T12:49:36.139Z,27.68
2019-06-10T12:52:12.602Z,26.99
2019-06-10T12:54:46.624Z,26.89
2019-06-10T12:57:22.832Z,27.22
2019-06-10T12:59:56.379Z,26.70
2019-06-10T13:02:34.417Z,25.91
2019-06-10T13:05:08.402Z,25.44
2019-06-10T13:07:42.980Z,25.32
2019-06-10T13:10:23.933Z,25.27
2019-06-10T13:12:57.927Z,26.12
2019-06-10T13:15:32.831Z,27.92
2019-06-10T13:18:09.703Z,27.92
2019-06-10T13:20:43.349Z,28.37
2019-06-10T13:23:25.354Z,29.60
2019-06-10T13:25:57.987Z,30.54
2019-06-10T13:28:28.910Z,30.65
2019-06-10T13:31:05.932Z,30.60
2019-06-10T13:33:37.670Z,30.82
2019-06-10T13:36:25.846Z,30.80
2019-06-10T13:39:10.338Z,31.21
2019-06-10T13:41:57.529Z,31.73
2019-06-10T13:44:42.733Z,31.47
2019-06-10T13:47:33.134Z,30.63
2019-06-10T13:50:11.255Z,30.08
2019-06-10T13:52:45.017Z,28.48
2019-06-10T13:55:18.722Z,27.76
2019-06-10T13:57:53.272Z,27.19
2019-06-10T14:00:40.797Z,26.84
2019-06-10T14:03:09.225Z,26.50
2019-06-10T14:05:38.819Z,26.22
2019-06-10T14:08:15.084Z,26.04
2019-06-10T14:10:47.644Z,25.90
2019-06-10T14:13:23.583Z,25.62
2019-06-10T14:15:56.726Z,25.22
2019-06-10T14:18:32.762Z,25.00
2019-06-10T14:21:11.613Z,24.66
2019-06-10T14:23:43.711Z,24.54
2019-06-10T14:26:25.579Z,24.15
2019-06-10T14:28:53.209Z,23.76
2019-06-10T14:31:40.515Z,23.55
2019-06-10T14:34:06.116Z,23.20
2019-06-10T14:36:48.239Z,22.88
2019-06-10T14:39:22.339Z,22.58
2019-06-10T14:41:59.251Z,22.37
2019-06-10T14:44:32.593Z,22.25
2019-06-10T14:47:09.273Z,22.15
2019-06-10T14:49:43.241Z,22.13
2019-06-10T14:52:19.713Z,22.31
2019-06-10T14:54:53.509Z,22.38
2019-06-10T14:57:27.129Z,22.37
2019-06-10T15:00:03.040Z,22.27
2019-06-10T15:02:48.789Z,22.34
2019-06-10T15:05:35.277Z,22.40
2019-06-10T15:08:13.459Z,22.42
2019-06-10T15:10:45.800Z,22.34
2019-06-10T15:13:20.180Z,22.09
2019-06-10T15:15:53.844Z,22.27
2019-06-10T15:18:27.479Z,22.23
2019-06-10T15:21:02.894Z,22.28
2019-06-10T15:23:37.061Z,22.22
2019-06-10T15:26:14.397Z,22.25
2019-06-10T15:28:46.576Z,22.22
2019-06-10T15:31:22.457Z,22.09
2019-06-10T15:33:55.757Z,22.10
2019-06-10T15:36:29.855Z,22.18
2019-06-10T15:39:04.984Z,22.14
2019-06-10T15:41:38.798Z,22.09
2019-06-10T15:44:18.211Z,21.92
2019-06-10T15:46:47.974Z,22.27
2019-06-10T15:49:26.075Z,22.48
2019-06-10T15:51:57.126Z,22.46
2019-06-10T15:54:33.390Z,22.53
2019-06-10T15:57:21.608Z,22.40
2019-06-10T15:59:44.428Z,22.68
2019-06-10T16:02:27.797Z,22.71
2019-06-10T16:05:12.641Z,22.67
2019-06-10T16:07:44.987Z,22.77
2019-06-10T16:10:21.305Z,22.79
2019-06-10T16:13:05.656Z,22.77
2019-06-10T16:15:53.209Z,22.76
2019-06-10T16:18:38.487Z,22.85
2019-06-10T16:21:24.240Z,22.84
2019-06-10T16:24:07.799Z,22.76
2019-06-10T16:26:41.615Z,22.65
2019-06-10T16:29:27.639Z,22.69
2019-06-10T16:32:09.760Z,22.68
2019-06-10T16:34:43.095Z,22.66
2019-06-10T16:37:17.113Z,22.59
2019-06-10T16:39:57.841Z,22.60
2019-06-10T16:42:32.198Z,22.61
2019-06-10T16:45:07.601Z,22.55
2019-06-10T16:47:43.056Z,22.53
2019-06-10T16:50:19.463Z,22.52
2019-06-10T16:52:53.721Z,22.56
2019-06-10T16:55:27.734Z,22.46
2019-06-10T16:58:02.799Z,22.44
2019-06-10T17:00:36.944Z,22.44
2019-06-10T17:03:12.662Z,22.38
2019-06-10T17:05:46.175Z,22.26
2019-06-10T17:08:20.027Z,22.30
2019-06-10T17:10:54.495Z,22.20
2019-06-10T17:13:30.230Z,22.24
2019-06-10T17:16:04.576Z,22.01
2019-06-10T17:18:41.682Z,22.09
2019-06-10T17:21:15.767Z,22.22
2019-06-10T17:23:52.403Z,22.24
2019-06-10T17:26:30.639Z,22.12
2019-06-10T17:29:02.866Z,22.07
2019-06-10T17:31:35.311Z,22.02
2019-06-10T17:34:07.343Z,21.79
2019-06-10T17:36:39.148Z,21.84
2019-06-10T17:39:12.500Z,21.76
2019-06-10T17:41:44.685Z,21.68
2019-06-10T17:44:16.477Z,21.63
2019-06-10T17:46:48.595Z,21.53
2019-06-10T17:49:23.446Z,21.47
2019-06-10T17:51:53.965Z,21.43
2019-06-10T17:54:26.774Z,21.36
2019-06-10T17:56:57.572Z,21.21
2019-06-10T17:59:29.306Z,21.15
2019-06-10T18:02:03.029Z,21.09
2019-06-10T18:04:36.168Z,21.06
2019-06-10T18:07:07.875Z,21.00
2019-06-10T18:09:39.759Z,20.79
2019-06-10T18:12:12.988Z,20.59
2019-06-10T18:14:44.903Z,20.49
2019-06-10T18:17:16.908Z,20.68
2019-06-10T18:19:48.778Z,20.68
2019-06-10T18:22:22.748Z,20.40
2019-06-10T18:24:54.173Z,20.48
2019-06-10T18:27:26.961Z,20.50
2019-06-10T18:30:02.293Z,20.55
2019-06-10T18:32:37.039Z,20.21
2019-06-10T18:35:07.625Z,20.22
2019-06-10T18:37:39.642Z,20.17
2019-06-10T18:40:14.483Z,20.21
2019-06-10T18:42:46.700Z,20.28
2019-06-10T18:45:19.601Z,20.30
2019-06-10T18:47:52.961Z,20.39
2019-06-10T18:50:26.166Z,20.27
2019-06-10T18:52:58.866Z,20.14
2019-06-10T18:55:34.170Z,20.03
2019-06-10T18:58:04.781Z,20.07
2019-06-10T19:00:55.847Z,20.02
2019-06-10T19:03:16.399Z,20.03
2019-06-10T19:05:43.798Z,19.80
2019-06-10T19:08:15.643Z,19.59
2019-06-10T19:10:47.670Z,19.52
2019-06-10T19:13:19.427Z,19.48
2019-06-10T19:15:53.172Z,19.15
2019-06-10T19:18:25.347Z,19.05
2019-06-10T19:20:57.598Z,19.00
2019-06-10T19:23:30.240Z,18.98
2019-06-10T19:26:02.952Z,19.18
2019-06-10T19:28:37.537Z,19.30
2019-06-10T19:31:09.590Z,19.44
2019-06-10T19:33:44.727Z,19.48
2019-06-10T19:36:14.930Z,19.34
2019-06-10T19:38:46.764Z,19.15
2019-06-10T19:41:18.480Z,18.91
2019-06-10T19:43:49.908Z,18.73
2019-06-10T19:46:23.424Z,18.71
2019-06-10T19:49:02.730Z,18.78
2019-06-10T19:51:29.445Z,18.86
2019-06-10T19:54:03.483Z,18.94
2019-06-10T19:56:35.342Z,19.01
2019-06-10T19:59:06.986Z,19.13
2019-06-10T20:01:40.470Z,19.21
2019-06-10T20:04:14.721Z,19.04
2019-06-10T20:06:50.353Z,19.11
2019-06-10T20:09:19.536Z,19.22
2019-06-10T20:11:51.391Z,19.25
2019-06-10T20:14:23.188Z,19.35
2019-06-10T20:16:54.832Z,19.34
2019-06-10T20:19:26.542Z,19.39
2019-06-10T20:21:58.459Z,19.39
2019-06-10T20:24:30.349Z,19.34
2019-06-10T20:27:03.162Z,19.22
2019-06-10T20:29:35.747Z,19.26
2019-06-10T20:32:07.669Z,19.34
2019-06-10T20:34:39.383Z,19.35
2019-06-10T20:37:13.193Z,19.36
2019-06-10T20:39:46.514Z,19.37
2019-06-10T20:42:18.337Z,19.33
2019-06-10T20:44:50.943Z,19.37
2019-06-10T20:50:59.480Z,19.29
2019-06-10T20:53:56.643Z,18.83
2019-06-10T20:56:30.230Z,18.71
2019-06-10T20:59:02.782Z,18.77
2019-06-10T21:01:34.861Z,18.86
2019-06-10T21:04:06.444Z,18.90
2019-06-10T21:06:39.721Z,18.89
2019-06-10T21:09:13.379Z,18.99
2019-06-10T21:11:47.017Z,19.03
2019-06-10T21:14:18.983Z,19.03
2019-06-10T21:16:53.281Z,18.99
2019-06-10T21:19:24.139Z,19.04
2019-06-10T21:21:55.932Z,19.07
2019-06-10T21:24:27.466Z,19.15
2019-06-10T21:26:59.383Z,19.16
2019-06-10T21:29:32.282Z,19.16
2019-06-10T21:32:04.721Z,19.21
2019-06-10T21:34:36.390Z,19.23
2019-06-10T21:37:07.973Z,19.06
2019-06-10T21:39:39.656Z,19.09
2019-06-10T21:42:12.462Z,18.88
2019-06-10T21:44:43.984Z,18.87
2019-06-10T21:47:15.682Z,18.75
2019-06-10T21:49:48.403Z,18.86
2019-06-10T21:52:20.233Z,18.84
2019-06-10T21:54:52.790Z,18.73
2019-06-10T21:57:24.343Z,18.78
2019-06-10T21:59:56.308Z,18.68
2019-06-10T22:02:27.897Z,18.66
2019-06-10T22:04:59.807Z,18.67
2019-06-10T22:07:32.889Z,18.75
2019-06-10T22:10:05.654Z,18.82
2019-06-10T22:12:37.346Z,18.77
2019-06-10T22:15:09.457Z,18.85
2019-06-10T22:17:42.507Z,18.86
2019-06-10T22:20:14.999Z,18.86
2019-06-10T22:22:46.701Z,18.61
2019-06-10T22:25:18.660Z,18.62
2019-06-10T22:27:50.340Z,18.38
2019-06-10T22:30:23.344Z,18.31
2019-06-10T22:32:57.823Z,18.26
2019-06-10T22:35:28.757Z,18.29
2019-06-10T22:38:02.545Z,18.40
2019-06-10T22:40:34.403Z,18.38
2019-06-10T22:43:07.709Z,18.26
2019-06-10T22:45:39.534Z,18.16
2019-06-10T22:48:12.143Z,18.14
2019-06-10T22:50:43.920Z,18.06
2019-06-10T22:53:15.624Z,17.97
2019-06-10T22:55:48.385Z,17.85
2019-06-10T22:58:23.629Z,17.78
2019-06-10T23:00:56.227Z,17.81
2019-06-10T23:03:27.304Z,17.81
2019-06-10T23:05:59.162Z,17.69
2019-06-10T23:08:33.259Z,17.64
2019-06-10T23:11:04.530Z,17.62
2019-06-10T23:13:36.362Z,17.58
2019-06-10T23:16:07.936Z,17.61
2019-06-10T23:18:39.447Z,17.78
2019-06-10T23:21:13.281Z,17.89
2019-06-10T23:23:44.603Z,17.91
2019-06-10T23:26:16.630Z,17.87
2019-06-10T23:28:48.359Z,17.76
2019-06-10T23:31:20.066Z,17.77
2019-06-10T23:33:55.969Z,17.70
2019-06-10T23:36:26.230Z,17.84
2019-06-10T23:38:58.924Z,17.75
2019-06-10T23:41:32.882Z,17.80
2019-06-10T23:44:04.504Z,17.55
2019-06-10T23:46:36.177Z,17.43
2019-06-10T23:49:07.793Z,17.34
2019-06-10T23:51:39.452Z,17.33
2019-06-10T23:54:12.695Z,17.24
2019-06-10T23:56:44.622Z,17.22
2019-06-10T23:59:16.634Z,17.23
